createdAt,value
2022-10-29T00:05:00.851Z,102004.06
2022-10-29T00:10:06.891Z,101990.69
2022-10-29T00:15:11.493Z,102006.13
2022-10-29T00:20:15.223Z,102003.22
2022-10-29T00:25:20.254Z,101989.00
2022-10-29T00:30:23.922Z,101997.34
2022-10-29T00:35:27.604Z,101998.69
2022-10-29T00:40:37.587Z,102007.22
2022-10-29T00:45:45.848Z,102002.00
2022-10-29T00:50:50.207Z,101994.84
2022-10-29T00:55:55.240Z,101999.03
2022-10-29T01:00:59.319Z,101982.31
2022-10-29T01:06:04.350Z,101989.91
2022-10-29T01:11:21.503Z,101983.69
2022-10-29T01:16:31.944Z,101989.56
2022-10-29T01:21:42.671Z,101983.34
2022-10-29T01:27:10.946Z,101967.38
2022-10-29T01:32:17.193Z,101966.25
2022-10-29T01:37:27.895Z,101964.09
2022-10-29T01:42:38.729Z,101962.28
2022-10-29T01:47:46.749Z,101941.22
2022-10-29T01:52:52.019Z,101941.81
2022-10-29T01:57:56.097Z,101939.91
2022-10-29T02:03:16.446Z,101934.56
2022-10-29T02:08:28.409Z,101937.06
2022-10-29T02:13:35.639Z,101934.34
2022-10-29T02:18:45.504Z,101932.53
2022-10-29T02:23:49.252Z,101930.56
2022-10-29T02:28:52.984Z,101924.25
2022-10-29T02:33:58.010Z,101919.78
2022-10-29T02:39:01.704Z,101904.09
2022-10-29T02:44:05.718Z,101896.47
2022-10-29T02:49:10.690Z,101897.47
2022-10-29T02:54:14.441Z,101891.66
2022-10-29T02:59:18.204Z,101889.16
2022-10-29T03:04:23.240Z,101885.66
2022-10-29T03:09:26.881Z,101882.00
2022-10-29T03:14:30.582Z,101872.44
2022-10-29T03:19:35.600Z,101876.59
2022-10-29T03:24:39.223Z,101886.94
2022-10-29T03:29:42.869Z,101877.63
2022-10-29T03:34:47.877Z,101869.16
2022-10-29T03:39:51.568Z,101871.06
2022-10-29T03:44:55.255Z,101869.66
2022-10-29T03:50:00.277Z,101866.50
2022-10-29T03:55:04.424Z,101856.44
2022-10-29T04:00:09.036Z,101839.06
2022-10-29T04:05:17.592Z,101832.94
2022-10-29T04:10:21.411Z,101830.41
2022-10-29T04:15:25.151Z,101836.28
2022-10-29T04:21:22.461Z,101827.72
2022-10-29T04:31:21.319Z,101815.41
2022-10-29T04:36:26.371Z,101812.63
2022-10-29T04:41:29.994Z,101814.13
2022-10-29T04:46:33.653Z,101804.41
2022-10-29T04:51:38.645Z,101822.47
2022-10-29T04:56:42.361Z,101812.81
2022-10-29T05:01:46.039Z,101810.13
2022-10-29T05:06:51.066Z,101802.13
2022-10-29T05:11:54.770Z,101810.97
2022-10-29T05:16:58.515Z,101811.84
2022-10-29T05:22:03.634Z,101817.06
2022-10-29T05:27:07.932Z,101806.75
2022-10-29T05:32:11.551Z,101800.78
2022-10-29T05:37:16.606Z,101789.53
2022-10-29T05:42:20.263Z,101776.63
2022-10-29T05:47:24.066Z,101771.47
2022-10-29T05:52:29.176Z,101787.94
2022-10-29T05:57:33.046Z,101783.72
2022-10-29T06:02:36.868Z,101769.06
2022-10-29T06:07:43.374Z,101781.38
2022-10-29T06:12:47.271Z,101791.03
2022-10-29T06:17:51.472Z,101795.38
2022-10-29T06:23:00.074Z,101790.28
2022-10-29T06:28:06.069Z,101779.19
2022-10-29T06:33:09.755Z,101779.88
2022-10-29T06:38:15.587Z,101789.41
2022-10-29T06:43:19.243Z,101790.16
2022-10-29T06:48:23.121Z,101808.50
2022-10-29T06:53:28.408Z,101817.31
2022-10-29T06:58:32.104Z,101812.06
2022-10-29T07:03:35.916Z,101796.44
2022-10-29T07:08:41.140Z,101785.31
2022-10-29T07:13:44.981Z,101787.94
2022-10-29T07:18:48.670Z,101786.37
2022-10-29T07:23:53.670Z,101776.16
2022-10-29T07:28:58.418Z,101771.91
2022-10-29T07:34:02.089Z,101778.19
2022-10-29T07:39:07.438Z,101771.63
2022-10-29T07:44:11.245Z,101764.22
2022-10-29T07:49:15.007Z,101773.22
2022-10-29T07:54:20.092Z,101759.63
2022-10-29T07:59:23.775Z,101766.09
2022-10-29T08:04:27.444Z,101758.84
2022-10-29T08:09:32.447Z,101753.31
2022-10-29T08:14:36.319Z,101751.03
2022-10-29T08:19:40.119Z,101742.78
2022-10-29T08:24:45.081Z,101738.84
2022-10-29T08:29:48.861Z,101744.97
2022-10-29T08:34:52.553Z,101758.50
2022-10-29T08:39:57.599Z,101754.22
2022-10-29T08:45:24.725Z,101747.59
2022-10-29T08:50:31.402Z,101739.84
2022-10-29T08:55:38.326Z,101733.75
2022-10-29T09:00:44.157Z,101729.91
2022-10-29T09:05:59.030Z,101732.03
2022-10-29T09:11:17.578Z,101723.75
2022-10-29T09:16:43.443Z,101724.00
2022-10-29T09:21:56.923Z,101712.66
2022-10-29T09:27:10.549Z,101709.44
2022-10-29T09:32:21.660Z,101681.56
2022-10-29T09:37:37.173Z,101701.84
2022-10-29T09:42:45.544Z,101690.59
2022-10-29T09:47:57.612Z,101679.75
2022-10-29T09:53:01.659Z,101695.34
2022-10-29T09:58:07.610Z,101684.69
2022-10-29T10:03:17.367Z,101680.03
2022-10-29T10:08:21.127Z,101677.50
2022-10-29T10:13:29.902Z,101671.88
2022-10-29T10:23:48.377Z,101640.41
2022-10-29T10:29:05.532Z,101649.94
2022-10-29T10:34:15.248Z,101635.47
2022-10-29T10:39:27.160Z,101639.47
2022-10-29T10:44:32.654Z,101629.31
2022-10-29T10:49:38.358Z,101622.97
2022-10-29T10:54:47.060Z,101634.81
2022-10-29T11:00:03.283Z,101635.12
2022-10-29T11:05:15.950Z,101633.78
2022-10-29T11:10:21.838Z,101616.47
2022-10-29T11:15:35.673Z,101622.63
2022-10-29T11:20:41.675Z,101605.00
2022-10-29T11:25:52.002Z,101596.16
2022-10-29T11:31:05.286Z,101602.38
2022-10-29T11:36:17.258Z,101589.06
2022-10-29T11:41:27.477Z,101591.88
2022-10-29T11:46:42.489Z,101598.72
2022-10-29T11:51:57.836Z,101586.19
2022-10-29T11:57:06.643Z,101582.44
2022-10-29T12:02:27.928Z,101582.50
2022-10-29T12:07:45.923Z,101574.25
2022-10-29T12:12:53.378Z,101569.75
2022-10-29T12:18:11.445Z,101561.63
2022-10-29T12:23:27.304Z,101556.69
2022-10-29T12:28:39.589Z,101544.12
2022-10-29T12:33:51.311Z,101534.84
2022-10-29T12:38:58.074Z,101537.41
2022-10-29T12:44:10.994Z,101514.81
2022-10-29T12:49:22.343Z,101510.16
2022-10-29T12:54:37.026Z,101518.00
2022-10-29T12:59:41.837Z,101516.94
2022-10-29T13:10:50.338Z,101488.22
2022-10-29T13:16:01.811Z,101488.22
2022-10-29T13:21:05.607Z,101503.91
2022-10-29T13:26:10.765Z,101507.84
2022-10-29T13:31:51.282Z,101502.00
2022-10-29T13:36:54.945Z,101489.09
2022-10-29T13:42:00.235Z,101490.28
2022-10-29T13:47:06.261Z,101472.66
2022-10-29T13:52:15.915Z,101476.06
2022-10-29T13:57:26.355Z,101479.12
2022-10-29T14:02:39.436Z,101478.63
2022-10-29T14:07:51.001Z,101474.44
2022-10-29T14:13:01.483Z,101471.91
2022-10-29T14:18:18.504Z,101467.72
2022-10-29T14:23:22.279Z,101467.69
2022-10-29T14:28:30.138Z,101462.47
2022-10-29T14:33:35.645Z,101467.72
2022-10-29T14:38:42.943Z,101457.97
2022-10-29T14:43:57.081Z,101448.25
2022-10-29T14:49:14.991Z,101450.22
2022-10-29T14:54:23.057Z,101446.81
2022-10-29T14:59:31.081Z,101440.78
2022-10-29T15:04:35.155Z,101434.69
2022-10-29T15:09:38.846Z,101426.87
2022-10-29T15:14:50.201Z,101421.62
2022-10-29T15:19:56.208Z,101415.59
2022-10-29T15:25:02.147Z,101402.44
2022-10-29T15:30:08.519Z,101400.69
2022-10-29T15:35:12.818Z,101388.38
2022-10-29T15:40:17.688Z,101382.25
2022-10-29T15:45:25.560Z,101376.09
2022-10-29T15:50:33.578Z,101386.59
2022-10-29T15:55:38.670Z,101378.69
2022-10-29T16:00:44.169Z,101379.53
2022-10-29T16:05:50.981Z,101383.03
2022-10-29T16:10:55.363Z,101376.81
2022-10-29T16:16:00.542Z,101383.69
2022-10-29T16:21:06.796Z,101381.03
2022-10-29T16:26:11.072Z,101370.47
2022-10-29T16:31:20.776Z,101359.00
2022-10-29T16:36:24.868Z,101360.66
2022-10-29T16:41:28.696Z,101351.78
2022-10-29T16:46:33.767Z,101352.66
2022-10-29T16:51:37.479Z,101364.78
2022-10-29T16:56:41.240Z,101355.06
2022-10-29T17:01:48.333Z,101333.00
2022-10-29T17:06:52.111Z,101325.06
2022-10-29T17:11:55.879Z,101328.66
2022-10-29T17:17:01.851Z,101341.75
2022-10-29T17:22:05.770Z,101354.81
2022-10-29T17:27:09.547Z,101398.63
2022-10-29T17:32:14.828Z,101395.94
2022-10-29T17:37:18.585Z,101393.97
2022-10-29T17:42:22.690Z,101403.53
2022-10-29T17:47:27.897Z,101403.37
2022-10-29T17:52:31.732Z,101419.94
2022-10-29T17:57:35.481Z,101422.56
2022-10-29T18:02:40.729Z,101424.19
2022-10-29T18:07:44.678Z,101425.03
2022-10-29T18:12:48.429Z,101425.84
2022-10-29T18:22:57.760Z,101427.34
2022-10-29T18:28:01.795Z,101427.25
2022-10-29T18:33:06.932Z,101427.97
2022-10-29T18:38:10.681Z,101431.44
2022-10-29T18:43:14.319Z,101430.37
2022-10-29T18:48:19.522Z,101423.28
2022-10-29T18:53:23.246Z,101422.28
2022-10-29T18:58:26.906Z,101411.62
2022-10-29T19:03:31.951Z,101421.16
2022-10-29T19:08:36.467Z,101416.72
2022-10-29T19:13:40.231Z,101427.16
2022-10-29T19:18:45.434Z,101415.66
2022-10-29T19:23:49.179Z,101414.59
2022-10-29T19:28:52.934Z,101420.72
2022-10-29T19:34:00.086Z,101423.34
2022-10-29T19:39:04.714Z,101422.38
2022-10-29T19:44:08.600Z,101440.53
2022-10-29T19:49:13.780Z,101444.06
2022-10-29T19:54:17.487Z,101443.81
2022-10-29T19:59:21.314Z,101446.50
2022-10-29T20:04:26.474Z,101448.22
2022-10-29T20:09:30.402Z,101441.91
2022-10-29T20:14:35.628Z,101448.06
2022-10-29T20:19:40.646Z,101454.88
2022-10-29T20:24:44.385Z,101455.47
2022-10-29T20:29:48.022Z,101454.75
2022-10-29T20:34:53.335Z,101454.50
2022-10-29T20:39:57.258Z,101463.13
2022-10-29T20:45:00.975Z,101455.28
2022-10-29T20:50:06.829Z,101466.53
2022-10-29T20:55:10.942Z,101469.09
2022-10-29T21:00:15.446Z,101462.88
2022-10-29T21:05:20.505Z,101466.25
2022-10-29T21:10:24.266Z,101476.50
2022-10-29T21:15:28.259Z,101477.31
2022-10-29T21:20:33.481Z,101483.09
2022-10-29T21:25:37.198Z,101484.78
2022-10-29T21:30:41.038Z,101482.84
2022-10-29T21:35:50.671Z,101495.72
2022-10-29T21:40:54.416Z,101499.16
2022-10-29T21:45:58.240Z,101508.53
2022-10-29T21:51:05.180Z,101503.00
2022-10-29T21:56:11.754Z,101516.03
2022-10-29T22:01:17.233Z,101510.56
2022-10-29T22:06:25.631Z,101516.50
2022-10-29T22:11:29.761Z,101512.88
2022-10-29T22:16:33.437Z,101517.16
2022-10-29T22:21:38.422Z,101508.22
2022-10-29T22:26:42.079Z,101508.84
2022-10-29T22:31:45.806Z,101506.03
2022-10-29T22:36:52.668Z,101505.09
2022-10-29T22:41:56.422Z,101506.59
2022-10-29T22:47:00.098Z,101512.41
2022-10-29T22:52:05.419Z,101521.03
2022-10-29T22:57:09.111Z,101515.81
2022-10-29T23:02:12.860Z,101524.34
2022-10-29T23:07:18.054Z,101519.19
2022-10-29T23:12:21.832Z,101519.91
2022-10-29T23:17:25.541Z,101517.09
2022-10-29T23:22:30.580Z,101521.97
2022-10-29T23:27:34.409Z,101522.00
2022-10-29T23:32:38.108Z,101524.53
2022-10-29T23:37:43.185Z,101528.69
2022-10-29T23:42:47.015Z,101538.09
2022-10-29T23:47:50.739Z,101536.22
2022-10-29T23:52:56.023Z,101536.91
2022-10-29T23:58:00.286Z,101539.38
